Архив погоды в Зее

Метеограмма Зея
Вторник, 14 Августа
Время местн. Темп Ветер Видим Явления Облачность нижн/средн/верх Атм. давл. Влжн Точка росы ВНГО R Сост. почвы Tg s
Напр Скр Прв ур.ст ур.м изм
18:00 +23.5° З,С-З 1 - 50 км - ясно 741 761 -0.2 41% +9.4° более 2.5 км - - - -
15:00 +24.7° штиль 0 - 50 км слабый ливневый дождь облачно с прояснениями 741 761 -0.6 39% +9.9° 1 км - - - -
12:00 +21.2° штиль 0 - 50 км - облачно с прояснениями 742 762 +0.6 64% +14.2° 1 км - - - -
09:00 +18° штиль 0 - 50 км - облачно 741 762 +0.5 74% +13.4° - 0 Влажная (без луж) - -
06:00 +10.7° штиль 0 - 50 км - облачно 741 762 +0.9 94% +9.7° - - - - -
03:00 +11.2° штиль 0 - 50 км - ясно 740 761 +0.5 93% +10.1° более 2.5 км - - - -
00:00 - +13.8° штиль 0 - 50 км - - 740 760 +0.6 93% +12.7° - - - - -
Понедельник, 13 Августа
Время местн. Темп Ветер Видим Явления Облачность нижн/средн/верх Атм. давл. Влжн Точка росы ВНГО R Сост. почвы Tg s
Напр Скр Прв ур.ст ур.м изм
21:00 +16.4° штиль 0 - 50 км небо без изменений {ливневые осадки} ясно 739 759 +0.9 89% +14.6° более 2.5 км 0 - - -
18:00 +22.2° штиль 0 - 50 км небо без изменений {ливневые осадки} облачно 738 758 0 56% +13° 1 км - - - -
15:00 +23.3° Ю,Ю-З 1 - 50 км - облачно 738 758 -0.7 51% +12.7° 1 км - - - -
12:00 +21.1° Ю-В 1 - 50 км - облачно с прояснениями 739 759 0 63% +13.8° 1 км - - - -
09:00 +16.8° штиль 0 - 50 км небо без изменений {ливневые осадки} облачно 739 759 +0.3 80% +13.3° 1 км 2 Влажная (без луж) - -
06:00 +12.1° штиль 0 - 50 км небо без изменений {ливневые осадки} облачно 738 759 +0.7 92% +10.9° 1 км - - - -
03:00 +12.3° штиль 0 - 20 км слабый ливневый дождь облачно 738 758 -0.1 91% +10.9° 1 км - - - -
00:00 +11.8° штиль 0 - 50 км - облачно 738 759 +0.9 91% +10.4° более 2.5 км - - - -
Воскресенье, 12 Августа
Время местн. Темп Ветер Видим Явления Облачность нижн/средн/верх Атм. давл. Влжн Точка росы ВНГО R Сост. почвы Tg s
Напр Скр Прв ур.ст ур.м изм
21:00 +15° штиль 0 - 50 км - облачно 737 757 +0.8 77% +11.1° - 0 - - -
18:00 +21.7° штиль 0 - 50 км - переменная облачность 736 756 0 40% +7.4° - - - - -
15:00 +22.9° В 1 - 50 км - переменная облачность 736 756 -0.5 35% +6.5° 1 км - - - -
12:00 +20.8° С,С-В 2 - 50 км - переменная облачность 737 757 -0.2 40% +6.6° более 2.5 км - - - -
09:00 +17.6° С 1 - 50 км - облачно с прояснениями 737 757 +0.3 56% +8.7° более 2.5 км 0 Сухая (без трещин) - -
06:00 +14.5° Ю-В 1 - 50 км - облачно 737 757 0 74% +10° 1 км - - - -
03:00 +14.6° С,С-В 1 - 50 км - облачно 737 757 +0.5 80% +11.2° 1 км - - - -
00:00 +16.3° Ю-В 1 - 50 км - облачно 736 756 +0.2 68% +10.3° 1 км - - - -
Суббота, 11 Августа
Время местн. Темп Ветер Видим Явления Облачность нижн/средн/верх Атм. давл. Влжн Точка росы ВНГО R Сост. почвы Tg s
Напр Скр Прв ур.ст ур.м изм
21:00 +17.1° штиль 0 - 50 км - облачно 736 756 +0.2 69% +11.4° 1 км 0 - - -
18:00 +22° С,С-З 1 - 50 км - преимущественно облачно 736 756 -0.5 38% +7.1° 1 км - - - -
15:00 +24.2° С 1 - 50 км - облачно с прояснениями 736 756 -1.2 31% +5.8° 1 км - - - -